createdAt,value
2022-09-27T00:01:40.971Z,0.80
2022-09-27T00:04:42.997Z,0.90
2022-09-27T00:07:45.888Z,0.80
2022-09-27T00:10:47.787Z,0.90
2022-09-27T00:13:51.203Z,0.83
2022-09-27T00:16:53.108Z,0.87
2022-09-27T00:19:57.982Z,1.03
2022-09-27T00:22:59.919Z,1.10
2022-09-27T00:26:02.493Z,0.90
2022-09-27T00:29:04.665Z,0.90
2022-09-27T00:32:07.157Z,0.77
2022-09-27T00:35:09.332Z,0.63
2022-09-27T00:38:12.112Z,1.00
2022-09-27T00:41:17.303Z,0.93
2022-09-27T00:44:25.743Z,0.50
2022-09-27T00:47:32.544Z,0.80
2022-09-27T00:50:42.939Z,0.80
2022-09-27T00:53:51.708Z,0.70
2022-09-27T00:56:54.354Z,0.70
2022-09-27T01:00:04.457Z,0.60
2022-09-27T01:03:08.462Z,1.13
2022-09-27T01:06:11.015Z,0.90
2022-09-27T01:09:13.263Z,1.23
2022-09-27T01:12:31.745Z,0.67
2022-09-27T01:15:40.443Z,1.37
2022-09-27T01:19:05.146Z,0.70
2022-09-27T01:22:24.607Z,0.70
2022-09-27T01:25:39.998Z,0.50
2022-09-27T01:28:51.631Z,0.87
2022-09-27T01:32:08.703Z,0.70
2022-09-27T01:35:51.337Z,0.90
2022-09-27T01:39:21.715Z,0.90
2022-09-27T01:42:31.953Z,0.73
2022-09-27T01:45:39.688Z,0.60
2022-09-27T01:48:46.855Z,0.70
2022-09-27T01:51:53.818Z,0.73
2022-09-27T01:55:00.154Z,0.70
2022-09-27T01:58:25.704Z,1.00
2022-09-27T02:01:29.705Z,0.60
2022-09-27T02:04:34.005Z,0.70
2022-09-27T02:07:53.207Z,0.70
2022-09-27T02:10:56.717Z,0.60
2022-09-27T02:14:02.840Z,0.57
2022-09-27T02:17:08.021Z,0.70
2022-09-27T02:20:31.027Z,0.70
2022-09-27T02:23:36.319Z,0.70
2022-09-27T02:26:42.684Z,0.70
2022-09-27T02:29:53.841Z,0.70
2022-09-27T02:32:55.984Z,0.80
2022-09-27T02:35:58.220Z,0.70
2022-09-27T02:39:02.151Z,0.90
2022-09-27T02:42:05.160Z,0.50
2022-09-27T02:45:08.167Z,0.77
2022-09-27T02:48:21.105Z,0.60
2022-09-27T02:51:35.174Z,0.80
2022-09-27T02:55:09.502Z,0.93
2022-09-27T02:58:49.186Z,0.70
2022-09-27T03:02:13.343Z,0.80
2022-09-27T03:05:23.487Z,0.70
2022-09-27T03:08:25.404Z,0.90
2022-09-27T03:11:27.451Z,0.83
2022-09-27T03:14:29.432Z,0.90
2022-09-27T03:17:32.124Z,0.70
2022-09-27T03:20:34.927Z,0.90
2022-09-27T03:23:38.308Z,0.70
2022-09-27T03:26:40.270Z,0.83
2022-09-27T03:29:42.394Z,0.90
2022-09-27T03:32:45.991Z,0.80
2022-09-27T03:35:48.404Z,0.70
2022-09-27T03:38:52.730Z,1.00
2022-09-27T03:41:54.634Z,1.00
2022-09-27T03:44:56.569Z,1.20
2022-09-27T03:47:58.924Z,1.77
2022-09-27T03:51:00.875Z,2.30
2022-09-27T03:54:02.899Z,2.23
2022-09-27T03:57:06.054Z,2.23
2022-09-27T04:00:12.115Z,1.40
2022-09-27T04:03:14.257Z,4.30
2022-09-27T04:06:16.490Z,1.80
2022-09-27T04:09:18.400Z,8.03
2022-09-27T04:12:20.361Z,4.67
2022-09-27T04:15:22.380Z,2.50
2022-09-27T04:18:24.613Z,1.70
2022-09-27T04:21:26.519Z,1.43
2022-09-27T04:24:28.501Z,1.30
2022-09-27T04:27:30.510Z,1.43
2022-09-27T04:30:33.124Z,1.20
2022-09-27T04:33:35.075Z,1.00
2022-09-27T04:36:37.700Z,1.20
2022-09-27T04:39:40.630Z,2.60
2022-09-27T04:42:42.550Z,13.83
2022-09-27T04:45:45.337Z,13.60
2022-09-27T04:48:51.004Z,5.70
2022-09-27T04:51:52.944Z,6.40
2022-09-27T04:54:55.358Z,3.07
2022-09-27T04:57:57.391Z,3.10
2022-09-27T05:01:00.008Z,4.00
2022-09-27T05:04:02.190Z,1.80
2022-09-27T05:07:05.361Z,1.90
2022-09-27T05:10:08.878Z,1.80
2022-09-27T05:13:11.420Z,1.97
2022-09-27T05:16:13.432Z,1.20
2022-09-27T05:19:16.302Z,1.20
2022-09-27T05:22:18.940Z,1.23
2022-09-27T05:25:20.881Z,1.60
2022-09-27T05:28:24.374Z,1.20
2022-09-27T05:31:26.983Z,1.10
2022-09-27T05:34:29.236Z,0.97
2022-09-27T05:37:32.110Z,0.90
2022-09-27T05:40:41.147Z,0.80
2022-09-27T05:43:44.195Z,0.90
2022-09-27T05:46:46.630Z,2.33
2022-09-27T05:49:48.665Z,2.23
2022-09-27T05:52:50.770Z,3.23
2022-09-27T05:55:52.675Z,1.67
2022-09-27T05:58:54.565Z,1.10
2022-09-27T06:01:57.428Z,0.90
2022-09-27T06:04:59.273Z,0.63
2022-09-27T06:08:06.065Z,0.70
2022-09-27T06:11:10.348Z,0.60
2022-09-27T06:14:15.443Z,0.50
2022-09-27T06:17:17.321Z,0.60
2022-09-27T06:20:19.305Z,0.60
2022-09-27T06:23:23.154Z,0.73
2022-09-27T06:26:27.268Z,1.10
2022-09-27T06:29:30.509Z,0.50
2022-09-27T06:32:32.951Z,0.67
2022-09-27T06:35:36.344Z,0.57
2022-09-27T06:38:39.080Z,0.70
2022-09-27T06:41:42.124Z,0.53
2022-09-27T06:44:49.408Z,0.90
2022-09-27T06:47:52.219Z,0.50
2022-09-27T06:50:56.451Z,0.60
2022-09-27T06:53:58.530Z,0.70
2022-09-27T06:57:02.707Z,0.60
2022-09-27T07:00:23.623Z,0.77
2022-09-27T07:03:36.495Z,0.50
2022-09-27T07:06:39.971Z,0.57
2022-09-27T07:09:43.121Z,0.93
2022-09-27T07:12:48.937Z,1.30
2022-09-27T07:15:51.770Z,1.20
2022-09-27T07:18:53.735Z,1.13
2022-09-27T07:21:56.049Z,1.00
2022-09-27T07:24:57.999Z,0.70
2022-09-27T07:28:05.127Z,0.87
2022-09-27T07:31:07.898Z,0.70
2022-09-27T07:34:11.457Z,0.67
2022-09-27T07:37:13.523Z,0.70
2022-09-27T07:40:15.868Z,0.90
2022-09-27T07:43:18.021Z,0.60
2022-09-27T07:46:20.528Z,0.60
2022-09-27T07:49:22.540Z,1.03
2022-09-27T07:52:25.012Z,0.87
2022-09-27T07:55:27.131Z,0.70
2022-09-27T07:58:30.795Z,0.70
2022-09-27T08:01:34.892Z,0.50
2022-09-27T08:04:37.033Z,0.70
2022-09-27T08:07:40.435Z,0.80
2022-09-27T08:10:44.719Z,0.90
2022-09-27T08:13:48.100Z,0.73
2022-09-27T08:16:51.665Z,1.57
2022-09-27T08:19:54.185Z,0.73
2022-09-27T08:22:56.899Z,0.70
2022-09-27T08:25:58.874Z,0.90
2022-09-27T08:29:00.911Z,0.60
2022-09-27T08:32:02.865Z,0.90
2022-09-27T08:35:07.529Z,0.83
2022-09-27T08:38:10.745Z,0.80
2022-09-27T08:41:53.259Z,0.70
2022-09-27T08:45:09.316Z,0.60
2022-09-27T08:48:11.971Z,0.57
2022-09-27T08:51:15.059Z,0.60
2022-09-27T08:54:26.449Z,1.10
2022-09-27T08:57:28.419Z,0.60
2022-09-27T09:00:30.652Z,0.87
2022-09-27T09:03:38.843Z,0.70
2022-09-27T09:07:09.991Z,1.00
2022-09-27T09:10:52.060Z,1.50
2022-09-27T09:14:11.426Z,1.10
2022-09-27T09:17:58.725Z,0.87
2022-09-27T09:21:24.924Z,0.70
2022-09-27T09:25:16.368Z,0.50
2022-09-27T09:28:47.188Z,0.73
2022-09-27T09:32:11.020Z,0.40
2022-09-27T09:35:20.700Z,0.70
2022-09-27T09:38:47.985Z,0.60
2022-09-27T09:42:11.027Z,0.40
2022-09-27T09:45:16.860Z,0.50
2022-09-27T09:48:19.006Z,0.60
2022-09-27T09:51:24.965Z,0.90
2022-09-27T09:54:29.584Z,0.67
2022-09-27T09:57:36.540Z,0.60
2022-09-27T10:00:40.009Z,0.50
2022-09-27T10:03:44.412Z,0.40
2022-09-27T10:06:48.017Z,0.40
2022-09-27T10:09:52.851Z,0.87
2022-09-27T10:12:55.480Z,0.80
2022-09-27T10:16:12.213Z,0.70
2022-09-27T10:19:16.969Z,0.63
2022-09-27T10:22:31.380Z,0.50
2022-09-27T10:26:04.169Z,0.60
2022-09-27T10:29:21.166Z,0.50
2022-09-27T10:32:28.199Z,0.40
2022-09-27T10:35:30.139Z,0.73
2022-09-27T10:38:36.693Z,0.33
2022-09-27T10:41:42.178Z,0.47
2022-09-27T10:44:44.125Z,0.80
2022-09-27T10:47:46.290Z,1.00
2022-09-27T10:51:01.370Z,0.47
2022-09-27T10:54:03.335Z,0.27
2022-09-27T10:57:15.000Z,0.20
2022-09-27T11:00:23.144Z,0.50
2022-09-27T11:03:26.791Z,0.67
2022-09-27T11:06:33.620Z,0.50
2022-09-27T11:09:47.610Z,0.50
2022-09-27T11:13:09.802Z,0.30
2022-09-27T11:16:36.906Z,0.30
2022-09-27T11:19:44.920Z,0.50
2022-09-27T11:23:23.615Z,0.40
2022-09-27T11:26:35.435Z,0.80
2022-09-27T11:29:47.095Z,0.70
2022-09-27T11:33:24.049Z,0.40
2022-09-27T11:36:34.979Z,0.50
2022-09-27T11:40:15.696Z,0.10
2022-09-27T11:43:33.150Z,0.33
2022-09-27T11:46:41.657Z,0.53
2022-09-27T11:50:07.960Z,0.40
2022-09-27T11:53:37.319Z,0.70
2022-09-27T11:57:03.040Z,0.60
2022-09-27T12:00:21.481Z,0.50
2022-09-27T12:03:35.700Z,0.30
2022-09-27T12:07:02.224Z,0.30
2022-09-27T12:10:14.756Z,0.50
2022-09-27T12:13:25.000Z,0.33
2022-09-27T12:16:27.055Z,0.57
2022-09-27T12:19:39.379Z,0.40
2022-09-27T12:23:00.581Z,0.20
2022-09-27T12:26:10.720Z,0.50
2022-09-27T12:29:18.163Z,0.50
2022-09-27T12:32:58.466Z,0.67
2022-09-27T12:36:05.455Z,0.40
2022-09-27T12:39:16.500Z,0.40
2022-09-27T12:42:26.938Z,0.73
2022-09-27T12:46:05.234Z,0.60
2022-09-27T12:49:40.540Z,0.70
2022-09-27T12:52:45.814Z,0.50
2022-09-27T12:55:58.955Z,0.70
2022-09-27T12:59:10.496Z,0.80
2022-09-27T13:02:21.888Z,1.10
2022-09-27T13:05:58.600Z,0.20
2022-09-27T13:09:06.725Z,0.30
2022-09-27T13:12:27.411Z,0.70
2022-09-27T13:15:34.259Z,0.27
2022-09-27T13:18:36.142Z,0.70
2022-09-27T13:21:47.744Z,0.40
2022-09-27T13:24:49.976Z,0.60
2022-09-27T13:27:51.985Z,0.20
2022-09-27T13:30:54.637Z,0.20
2022-09-27T13:33:56.589Z,0.20
2022-09-27T13:36:58.445Z,0.30
2022-09-27T13:40:19.036Z,0.40
2022-09-27T13:43:28.075Z,0.20
2022-09-27T13:46:30.999Z,0.30
2022-09-27T13:49:41.306Z,0.27
2022-09-27T13:52:45.585Z,0.30
2022-09-27T13:55:49.739Z,0.30
2022-09-27T13:58:56.330Z,0.33
2022-09-27T14:02:21.417Z,0.30
2022-09-27T14:05:28.647Z,0.20
2022-09-27T14:08:37.382Z,0.30
2022-09-27T14:11:41.358Z,0.40
2022-09-27T14:14:44.065Z,0.20
2022-09-27T14:17:46.164Z,0.40
2022-09-27T14:20:53.067Z,0.43
2022-09-27T14:23:55.217Z,0.60
2022-09-27T14:27:22.299Z,0.90
2022-09-27T14:30:27.909Z,0.40
2022-09-27T14:33:33.011Z,0.50
2022-09-27T14:36:54.496Z,0.60
2022-09-27T14:40:07.208Z,0.60
2022-09-27T14:43:18.997Z,0.40
2022-09-27T14:46:30.731Z,0.73
2022-09-27T14:49:32.707Z,0.30
2022-09-27T14:52:35.826Z,0.40
2022-09-27T14:55:38.907Z,0.40
2022-09-27T14:58:47.614Z,0.40
2022-09-27T15:01:50.861Z,0.80
2022-09-27T15:04:53.362Z,0.40
2022-09-27T15:07:58.441Z,0.30
2022-09-27T15:11:01.695Z,0.40
2022-09-27T15:14:05.287Z,0.40
2022-09-27T15:17:21.721Z,0.47
2022-09-27T15:20:32.191Z,0.67
2022-09-27T15:23:42.218Z,0.80
2022-09-27T15:26:48.019Z,1.00
2022-09-27T15:29:54.959Z,1.00
2022-09-27T15:32:56.974Z,2.47
2022-09-27T15:36:04.200Z,1.90
2022-09-27T15:39:13.062Z,1.90
2022-09-27T15:42:19.953Z,1.90
2022-09-27T15:45:34.103Z,2.03
2022-09-27T15:48:37.890Z,2.00
2022-09-27T15:51:41.572Z,1.57
2022-09-27T15:54:43.722Z,1.00
2022-09-27T15:57:51.081Z,1.00
2022-09-27T16:00:59.075Z,0.83
2022-09-27T16:04:01.412Z,0.73
2022-09-27T16:07:05.037Z,0.77
2022-09-27T16:10:20.078Z,0.40
2022-09-27T16:13:31.661Z,0.60
2022-09-27T16:16:34.953Z,0.70
2022-09-27T16:19:36.901Z,0.90
2022-09-27T16:22:38.800Z,0.60
2022-09-27T16:25:40.781Z,0.40
2022-09-27T16:28:42.734Z,0.57
2022-09-27T16:31:45.750Z,0.77
2022-09-27T16:34:47.726Z,0.40
2022-09-27T16:37:49.891Z,0.40
2022-09-27T16:40:51.791Z,0.50
2022-09-27T16:43:54.706Z,0.77
2022-09-27T16:46:56.895Z,0.90
2022-09-27T16:50:17.933Z,1.20
2022-09-27T16:53:19.930Z,1.00
2022-09-27T16:56:21.896Z,0.90
2022-09-27T16:59:25.142Z,0.80
2022-09-27T17:02:27.676Z,1.00
2022-09-27T17:05:29.572Z,0.90
2022-09-27T17:08:32.744Z,1.10
2022-09-27T17:11:34.653Z,1.27
2022-09-27T17:14:36.576Z,0.83
2022-09-27T17:17:38.682Z,1.80
2022-09-27T17:20:40.760Z,1.20
2022-09-27T17:23:42.757Z,0.80
2022-09-27T17:26:45.009Z,0.93
2022-09-27T17:29:46.880Z,0.60
2022-09-27T17:32:49.000Z,0.87
2022-09-27T17:36:00.332Z,0.83
2022-09-27T17:39:03.509Z,1.10
2022-09-27T17:42:05.671Z,3.10
2022-09-27T17:45:08.717Z,2.23
2022-09-27T17:48:29.277Z,1.90
2022-09-27T17:51:32.292Z,1.00
2022-09-27T17:54:34.576Z,0.70
2022-09-27T17:57:36.466Z,0.90
2022-09-27T18:00:38.646Z,1.70
2022-09-27T18:03:40.527Z,2.10
2022-09-27T18:06:44.369Z,2.33
2022-09-27T18:09:46.258Z,1.00
2022-09-27T18:12:48.237Z,1.13
2022-09-27T18:15:59.875Z,0.50
2022-09-27T18:19:04.072Z,0.60
2022-09-27T18:22:05.921Z,0.80
2022-09-27T18:25:08.232Z,0.60
2022-09-27T18:28:10.168Z,0.60
2022-09-27T18:31:14.931Z,0.80
2022-09-27T18:34:18.602Z,0.70
2022-09-27T18:37:20.750Z,0.73
2022-09-27T18:40:38.378Z,0.40
2022-09-27T18:43:46.496Z,0.77
2022-09-27T18:46:48.564Z,0.70
2022-09-27T18:49:50.892Z,0.50
2022-09-27T18:52:53.258Z,0.80
2022-09-27T18:55:55.220Z,0.77
2022-09-27T18:58:57.941Z,0.73
2022-09-27T19:02:01.088Z,0.80
2022-09-27T19:05:03.517Z,0.80
2022-09-27T19:08:05.440Z,0.60
2022-09-27T19:11:10.907Z,0.80
2022-09-27T19:14:17.924Z,1.10
2022-09-27T19:17:20.775Z,1.60
2022-09-27T19:20:27.157Z,0.93
2022-09-27T19:23:40.950Z,0.60
2022-09-27T19:26:51.471Z,0.53
2022-09-27T19:30:00.753Z,0.50
2022-09-27T19:33:04.372Z,0.47
2022-09-27T19:36:09.301Z,0.70
2022-09-27T19:39:12.769Z,0.50
2022-09-27T19:42:14.996Z,1.23
2022-09-27T19:45:17.481Z,0.97
2022-09-27T19:48:20.211Z,1.50
2022-09-27T19:51:28.084Z,1.07
2022-09-27T19:54:30.693Z,1.13
2022-09-27T19:57:32.977Z,1.80
2022-09-27T20:00:35.576Z,2.70
2022-09-27T20:03:41.689Z,1.13
2022-09-27T20:06:43.546Z,1.00
2022-09-27T20:09:45.501Z,0.53
2022-09-27T20:12:51.296Z,0.70
2022-09-27T20:15:57.125Z,0.67
2022-09-27T20:19:02.989Z,1.13
2022-09-27T20:22:04.929Z,1.00
2022-09-27T20:25:08.186Z,0.80
2022-09-27T20:28:11.312Z,1.00
2022-09-27T20:31:15.236Z,0.70
2022-09-27T20:34:17.207Z,0.50
2022-09-27T20:37:19.081Z,0.57
2022-09-27T20:40:21.070Z,0.60
2022-09-27T20:43:23.078Z,0.70
2022-09-27T20:46:25.593Z,0.80
2022-09-27T20:49:27.541Z,0.70
2022-09-27T20:52:29.887Z,0.60
2022-09-27T20:55:33.646Z,0.50
2022-09-27T20:58:35.533Z,0.60
2022-09-27T21:01:38.333Z,0.90
2022-09-27T21:04:40.480Z,1.10
2022-09-27T21:07:42.382Z,0.63
2022-09-27T21:10:49.143Z,0.70
2022-09-27T21:13:54.266Z,0.80
2022-09-27T21:17:01.119Z,1.10
2022-09-27T21:20:03.905Z,1.10
2022-09-27T21:23:06.306Z,0.67
2022-09-27T21:26:13.625Z,0.80
2022-09-27T21:29:16.140Z,0.50
2022-09-27T21:32:18.194Z,0.40
2022-09-27T21:35:20.155Z,0.50
2022-09-27T21:38:22.196Z,0.60
2022-09-27T21:41:26.069Z,0.40
2022-09-27T21:44:30.016Z,0.50
2022-09-27T21:47:33.397Z,0.40
2022-09-27T21:50:35.403Z,0.60
2022-09-27T21:53:39.848Z,0.37
2022-09-27T21:56:43.465Z,0.63
2022-09-27T21:59:45.599Z,0.43
2022-09-27T22:02:47.602Z,0.60
2022-09-27T22:05:51.773Z,0.60
2022-09-27T22:08:54.718Z,0.30
2022-09-27T22:11:57.537Z,0.63
2022-09-27T22:14:59.612Z,0.40
2022-09-27T22:18:01.883Z,0.70
2022-09-27T22:21:06.512Z,0.53
2022-09-27T22:24:13.196Z,0.80
2022-09-27T22:27:15.075Z,0.40
2022-09-27T22:30:18.444Z,0.40
2022-09-27T22:33:20.408Z,0.67
2022-09-27T22:36:23.293Z,0.40
2022-09-27T22:39:25.447Z,0.60
2022-09-27T22:42:27.412Z,0.50
2022-09-27T22:45:29.386Z,0.50
2022-09-27T22:48:32.269Z,0.60
2022-09-27T22:51:34.196Z,0.50
2022-09-27T22:54:37.441Z,0.53
2022-09-27T22:57:39.390Z,0.50
2022-09-27T23:00:41.367Z,0.60
2022-09-27T23:03:44.263Z,0.40
2022-09-27T23:06:46.376Z,0.60
2022-09-27T23:09:48.328Z,0.50
2022-09-27T23:12:54.884Z,0.50
2022-09-27T23:16:00.820Z,0.50
2022-09-27T23:19:03.157Z,0.37
2022-09-27T23:22:05.061Z,0.43
2022-09-27T23:25:08.912Z,0.47
2022-09-27T23:28:10.811Z,0.50
2022-09-27T23:31:14.947Z,0.67
2022-09-27T23:34:18.486Z,0.40
2022-09-27T23:37:20.872Z,0.77
2022-09-27T23:40:23.452Z,0.70
2022-09-27T23:43:25.917Z,0.50
2022-09-27T23:46:27.903Z,0.80
2022-09-27T23:49:32.379Z,0.43
2022-09-27T23:52:34.254Z,0.40
2022-09-27T23:55:36.241Z,0.50
2022-09-27T23:58:42.793Z,0.40
